Time;durP1;ratioP1;P1;durP2;ratioP2;P2;SDS_P1;SDS_P2;PMS_P1;PMS_P2;Temp;Humidity;BMP_temperature;BMP_pressure;BME280_temperature;BME280_humidity;BME280_pressure;Samples;Min_cycle;Max_cycle;Signal;HPM_P1;HPM_P2
2021/05/30 00:00:07;;;;;;;6.97;5.60;;;;;;;;;;4992707;28;20182;-58
2021/05/30 00:02:36;;;;;;;7.13;5.40;;;;;;;;;;5000732;28;20187;-57
2021/05/30 00:05:05;;;;;;;6.40;5.30;;;;;;;;;;5004892;28;20659;-57
2021/05/30 00:07:30;;;;;;;8.00;7.20;;;;;;;;;;5009637;28;20171;-58
2021/05/30 00:09:56;;;;;;;10.67;8.87;;;;;;;;;;4984325;28;20253;-57
2021/05/30 00:12:21;;;;;;;8.63;7.30;;;;;;;;;;5005716;28;20184;-58
2021/05/30 00:17:16;;;;;;;8.00;6.90;;;;;;;;;;5009866;28;20227;-60
2021/05/30 00:19:47;;;;;;;6.90;6.20;;;;;;;;;;5012544;28;20565;-59
2021/05/30 00:22:17;;;;;;;9.60;7.27;;;;;;;;;;4997782;28;20901;-59
2021/05/30 00:24:45;;;;;;;8.77;6.40;;;;;;;;;;5012642;28;20218;-60
2021/05/30 00:27:13;;;;;;;8.17;6.60;;;;;;;;;;5009103;28;20637;-60
2021/05/30 00:29:43;;;;;;;8.57;7.03;;;;;;;;;;5007897;28;20199;-61
2021/05/30 00:32:08;;;;;;;8.60;7.80;;;;;;;;;;5012133;28;20237;-60
2021/05/30 00:34:33;;;;;;;5.37;4.30;;;;;;;;;;5008625;28;20184;-60
2021/05/30 00:37:03;;;;;;;5.60;5.10;;;;;;;;;;5009498;28;20233;-59
2021/05/30 00:39:29;;;;;;;2.93;2.73;;;;;;;;;;5009078;28;20749;-59
2021/05/30 00:41:59;;;;;;;3.40;2.40;;;;;;;;;;5014431;28;20381;-58
2021/05/30 00:44:26;;;;;;;12.07;3.13;;;;;;;;;;4985833;28;20619;-59
2021/05/30 00:46:53;;;;;;;14.27;4.13;;;;;;;;;;5007748;28;20213;-59
2021/05/30 00:49:21;;;;;;;11.30;5.93;;;;;;;;;;5016066;28;20202;-58
2021/05/30 00:51:49;;;;;;;7.50;4.53;;;;;;;;;;5009622;28;20273;-59
2021/05/30 00:54:18;;;;;;;12.03;3.80;;;;;;;;;;5009076;28;20210;-59
2021/05/30 00:56:45;;;;;;;75.63;8.00;;;;;;;;;;4991079;28;20215;-60
2021/05/30 00:59:14;;;;;;;16.03;6.13;;;;;;;;;;5015220;28;20203;-59
2021/05/30 01:01:44;;;;;;;9.40;5.67;;;;;;;;;;5008556;28;20206;-60
2021/05/30 01:04:12;;;;;;;10.30;5.30;;;;;;;;;;5010160;28;20195;-59
2021/05/30 01:06:40;;;;;;;9.50;6.63;;;;;;;;;;5008448;28;20215;-60
2021/05/30 01:09:08;;;;;;;9.70;6.70;;;;;;;;;;4993268;28;20187;-59
2021/05/30 01:11:36;;;;;;;9.07;7.53;;;;;;;;;;5010005;28;20673;-60
2021/05/30 01:14:04;;;;;;;8.70;7.43;;;;;;;;;;5006916;28;20196;-60
2021/05/30 01:16:34;;;;;;;87.63;11.10;;;;;;;;;;5012489;28;20723;-60
2021/05/30 01:19:00;;;;;;;40.27;8.33;;;;;;;;;;5005141;28;20209;-60
2021/05/30 01:21:28;;;;;;;11.20;7.40;;;;;;;;;;5006297;28;20481;-59
2021/05/30 01:23:56;;;;;;;9.40;7.00;;;;;;;;;;5010975;28;20214;-60
2021/05/30 01:26:25;;;;;;;11.57;7.93;;;;;;;;;;4990980;28;20299;-60
2021/05/30 01:28:55;;;;;;;12.90;8.03;;;;;;;;;;5010619;28;20191;-61
2021/05/30 01:31:23;;;;;;;8.33;6.83;;;;;;;;;;4987339;28;20200;-58
2021/05/30 01:33:51;;;;;;;8.33;6.67;;;;;;;;;;5009243;28;20211;-58
2021/05/30 01:36:18;;;;;;;8.00;5.57;;;;;;;;;;5002609;28;21554;-61
2021/05/30 01:38:44;;;;;;;8.67;6.63;;;;;;;;;;5007761;28;20200;-59
2021/05/30 01:41:11;;;;;;;10.43;7.30;;;;;;;;;;5007854;28;20606;-60
2021/05/30 01:43:36;;;;;;;8.00;6.37;;;;;;;;;;5007743;28;20192;-59
2021/05/30 01:46:04;;;;;;;10.43;7.57;;;;;;;;;;4992724;28;20211;-58
2021/05/30 01:48:32;;;;;;;10.07;7.37;;;;;;;;;;5001878;28;20203;-59
2021/05/30 01:51:00;;;;;;;11.10;7.43;;;;;;;;;;4999852;28;20263;-59
2021/05/30 01:53:37;;;;;;;8.80;5.40;;;;;;;;;;5006301;28;20199;-59
2021/05/30 01:58:36;;;;;;;121.40;12.03;;;;;;;;;;5007938;28;20782;-58
2021/05/30 02:01:02;;;;;;;87.00;12.60;;;;;;;;;;4991403;28;20207;-59
2021/05/30 02:03:34;;;;;;;15.43;6.87;;;;;;;;;;4991882;28;20222;-59
2021/05/30 02:06:00;;;;;;;18.33;6.53;;;;;;;;;;5003906;28;20299;-60
2021/05/30 02:08:29;;;;;;;11.13;7.07;;;;;;;;;;5005618;28;20188;-59
2021/05/30 02:10:55;;;;;;;9.07;6.53;;;;;;;;;;4987076;28;20190;-59
2021/05/30 02:13:21;;;;;;;8.20;6.07;;;;;;;;;;5010651;28;20195;-60
2021/05/30 02:15:50;;;;;;;7.10;5.33;;;;;;;;;;5008126;28;20591;-60
2021/05/30 02:18:19;;;;;;;7.77;5.70;;;;;;;;;;5004562;28;20219;-60
2021/05/30 02:20:47;;;;;;;12.10;7.47;;;;;;;;;;5006233;28;20211;-60
2021/05/30 02:23:18;;;;;;;9.80;7.23;;;;;;;;;;5005051;28;20201;-59
2021/05/30 02:25:45;;;;;;;9.43;7.20;;;;;;;;;;5011358;28;20254;-60
2021/05/30 02:28:15;;;;;;;13.80;7.80;;;;;;;;;;5004242;28;20736;-60
2021/05/30 02:30:40;;;;;;;116.87;10.47;;;;;;;;;;5010458;28;20246;-59
2021/05/30 02:33:06;;;;;;;233.40;13.27;;;;;;;;;;5011402;28;20682;-61
2021/05/30 02:35:31;;;;;;;19.67;7.87;;;;;;;;;;5007326;28;20211;-58
2021/05/30 02:38:04;;;;;;;99.07;10.43;;;;;;;;;;5004715;28;20283;-60
2021/05/30 02:40:36;;;;;;;9.43;7.37;;;;;;;;;;5009564;28;20266;-59
2021/05/30 02:43:02;;;;;;;12.60;9.17;;;;;;;;;;5002829;28;20271;-59
2021/05/30 02:45:27;;;;;;;9.57;7.40;;;;;;;;;;5007182;28;20276;-59
2021/05/30 02:47:57;;;;;;;9.33;7.00;;;;;;;;;;4991303;28;20186;-59
2021/05/30 02:50:25;;;;;;;8.53;6.80;;;;;;;;;;4991359;28;20222;-60
2021/05/30 02:52:55;;;;;;;8.50;6.13;;;;;;;;;;5009227;28;20595;-60
2021/05/30 02:55:22;;;;;;;8.47;5.83;;;;;;;;;;5005965;28;20295;-61
2021/05/30 02:57:52;;;;;;;6.77;5.50;;;;;;;;;;5007271;28;20188;-60
2021/05/30 03:00:23;;;;;;;7.17;5.53;;;;;;;;;;5002396;28;20210;-59
2021/05/30 03:02:49;;;;;;;7.40;5.47;;;;;;;;;;5012341;28;20179;-60
2021/05/30 03:05:16;;;;;;;6.00;5.10;;;;;;;;;;5012333;28;20420;-60
2021/05/30 03:07:44;;;;;;;5.17;4.20;;;;;;;;;;5002080;28;20279;-57
2021/05/30 03:10:09;;;;;;;9.00;5.00;;;;;;;;;;5009337;28;20254;-60
2021/05/30 03:12:40;;;;;;;6.27;4.67;;;;;;;;;;5011350;28;20190;-60
2021/05/30 03:15:13;;;;;;;8.70;6.10;;;;;;;;;;5003937;28;20207;-60
2021/05/30 03:17:41;;;;;;;9.50;7.33;;;;;;;;;;4993814;28;20230;-60
2021/05/30 03:20:09;;;;;;;11.30;7.47;;;;;;;;;;4995454;28;20197;-59
2021/05/30 03:22:36;;;;;;;11.30;7.83;;;;;;;;;;5005716;28;20188;-59
2021/05/30 03:25:05;;;;;;;9.30;6.93;;;;;;;;;;5011944;28;20218;-59
2021/05/30 03:27:33;;;;;;;6.77;6.03;;;;;;;;;;5005485;28;20743;-59
2021/05/30 03:30:03;;;;;;;9.20;6.93;;;;;;;;;;5010981;28;20191;-60
2021/05/30 03:32:31;;;;;;;9.47;7.30;;;;;;;;;;5005417;28;20247;-60
2021/05/30 03:35:00;;;;;;;11.03;6.67;;;;;;;;;;5005848;28;20482;-60
2021/05/30 03:37:26;;;;;;;10.47;6.00;;;;;;;;;;5008858;28;20203;-61
2021/05/30 03:39:57;;;;;;;10.03;7.17;;;;;;;;;;5004850;28;20200;-60
2021/05/30 03:42:27;;;;;;;10.80;6.70;;;;;;;;;;5009979;28;20204;-59
2021/05/30 03:44:56;;;;;;;8.13;6.93;;;;;;;;;;5007098;28;20175;-60
2021/05/30 03:47:22;;;;;;;10.37;7.00;;;;;;;;;;5009689;28;20642;-60
2021/05/30 03:49:47;;;;;;;10.37;7.80;;;;;;;;;;4994645;28;20187;-59
2021/05/30 03:52:17;;;;;;;10.87;7.87;;;;;;;;;;5011816;28;20200;-60
2021/05/30 03:54:47;;;;;;;10.10;8.17;;;;;;;;;;4987109;28;20187;-59
2021/05/30 03:57:15;;;;;;;9.17;7.23;;;;;;;;;;5008079;28;20227;-60
2021/05/30 03:59:45;;;;;;;9.63;7.83;;;;;;;;;;5013144;28;20222;-59
2021/05/30 04:02:10;;;;;;;10.40;7.40;;;;;;;;;;5010917;28;20193;-60
2021/05/30 04:04:38;;;;;;;8.63;6.90;;;;;;;;;;4994133;28;20278;-60
2021/05/30 04:07:06;;;;;;;9.07;6.53;;;;;;;;;;5012356;28;20205;-60
2021/05/30 04:09:36;;;;;;;13.07;8.63;;;;;;;;;;5010011;28;20241;-59
2021/05/30 04:12:03;;;;;;;15.17;9.17;;;;;;;;;;5012487;28;20245;-60
2021/05/30 04:14:28;;;;;;;12.30;8.77;;;;;;;;;;5008947;28;20574;-60
2021/05/30 04:16:53;;;;;;;11.67;8.20;;;;;;;;;;5010466;28;20231;-60
2021/05/30 04:19:21;;;;;;;9.83;7.73;;;;;;;;;;4994661;28;20566;-60
2021/05/30 04:21:51;;;;;;;12.83;9.30;;;;;;;;;;5014492;28;20230;-60
2021/05/30 04:24:18;;;;;;;9.97;8.10;;;;;;;;;;5010505;28;20238;-59
2021/05/30 04:26:45;;;;;;;12.53;9.00;;;;;;;;;;5005168;28;20211;-62
2021/05/30 04:29:11;;;;;;;11.90;8.30;;;;;;;;;;5012251;28;20218;-60
2021/05/30 04:31:41;;;;;;;9.50;7.73;;;;;;;;;;5015260;28;20199;-60
2021/05/30 04:34:11;;;;;;;10.13;8.60;;;;;;;;;;5008937;28;20191;-59
2021/05/30 04:36:39;;;;;;;8.87;7.57;;;;;;;;;;5005357;28;20291;-60
2021/05/30 04:39:09;;;;;;;11.63;8.20;;;;;;;;;;5005822;28;20722;-59
2021/05/30 04:41:35;;;;;;;10.40;7.57;;;;;;;;;;5013006;28;20542;-59
2021/05/30 04:44:05;;;;;;;8.83;7.67;;;;;;;;;;5007474;28;20175;-60
2021/05/30 04:46:32;;;;;;;13.70;9.07;;;;;;;;;;5004176;28;20242;-60
2021/05/30 04:49:00;;;;;;;13.50;9.03;;;;;;;;;;5012781;28;20180;-61
2021/05/30 04:51:27;;;;;;;13.40;9.40;;;;;;;;;;5007061;28;20327;-60
2021/05/30 04:53:55;;;;;;;11.57;8.87;;;;;;;;;;5007810;28;20190;-60
2021/05/30 04:56:25;;;;;;;13.50;9.30;;;;;;;;;;5005320;28;20211;-61
2021/05/30 04:58:52;;;;;;;10.40;8.80;;;;;;;;;;5012793;28;20291;-59
2021/05/30 05:01:22;;;;;;;13.57;9.40;;;;;;;;;;5013161;28;20214;-59
2021/05/30 05:03:51;;;;;;;12.13;8.70;;;;;;;;;;5006047;28;20227;-60
2021/05/30 05:06:21;;;;;;;12.57;9.60;;;;;;;;;;4995306;28;20222;-59
2021/05/30 05:08:49;;;;;;;13.87;10.80;;;;;;;;;;5009811;28;20575;-60
2021/05/30 05:11:16;;;;;;;16.60;11.00;;;;;;;;;;4994035;28;20250;-60
2021/05/30 05:13:44;;;;;;;20.97;12.27;;;;;;;;;;5009071;28;20762;-60
2021/05/30 05:16:11;;;;;;;19.67;12.30;;;;;;;;;;5003489;28;20245;-60
2021/05/30 05:18:44;;;;;;;18.93;12.20;;;;;;;;;;5014102;28;20294;-61
2021/05/30 05:21:09;;;;;;;19.53;12.03;;;;;;;;;;5003391;28;20198;-60
2021/05/30 05:23:34;;;;;;;19.30;11.80;;;;;;;;;;5010918;28;20568;-60
2021/05/30 05:26:06;;;;;;;17.83;12.37;;;;;;;;;;5006497;28;20207;-60
2021/05/30 05:28:37;;;;;;;18.77;12.83;;;;;;;;;;5008583;28;20294;-60
2021/05/30 05:31:09;;;;;;;15.63;11.63;;;;;;;;;;5007523;28;20231;-60
2021/05/30 05:33:39;;;;;;;17.27;11.80;;;;;;;;;;5004299;28;20226;-60
2021/05/30 05:36:05;;;;;;;20.70;13.07;;;;;;;;;;5010921;28;20238;-60
2021/05/30 05:38:30;;;;;;;18.93;12.13;;;;;;;;;;5007580;28;20239;-59
2021/05/30 05:40:58;;;;;;;22.23;12.37;;;;;;;;;;5013283;28;20620;-60
2021/05/30 05:43:23;;;;;;;17.40;11.10;;;;;;;;;;4988176;28;20324;-59
2021/05/30 05:45:48;;;;;;;15.27;11.80;;;;;;;;;;5009742;28;20247;-60
2021/05/30 05:48:15;;;;;;;15.20;11.93;;;;;;;;;;5009641;28;20218;-60
2021/05/30 05:50:42;;;;;;;20.83;13.00;;;;;;;;;;5007916;28;20287;-60
2021/05/30 05:53:07;;;;;;;17.40;12.97;;;;;;;;;;4995565;28;20318;-59
2021/05/30 05:55:37;;;;;;;17.97;13.07;;;;;;;;;;5007405;28;20235;-60
2021/05/30 05:58:03;;;;;;;16.00;12.47;;;;;;;;;;5015028;28;20895;-60
2021/05/30 06:00:33;;;;;;;19.97;13.07;;;;;;;;;;5010257;28;20262;-60
2021/05/30 06:03:04;;;;;;;18.67;13.03;;;;;;;;;;5009308;28;20191;-59
2021/05/30 06:05:29;;;;;;;20.23;13.10;;;;;;;;;;5008951;28;20602;-58
2021/05/30 06:07:56;;;;;;;19.27;12.73;;;;;;;;;;5003972;28;20198;-60
2021/05/30 06:10:24;;;;;;;19.53;12.67;;;;;;;;;;5005187;28;20195;-59
2021/05/30 06:13:02;;;;;;;17.97;12.47;;;;;;;;;;5008348;28;20209;-58
2021/05/30 06:15:28;;;;;;;17.37;12.43;;;;;;;;;;5025835;23;20234;-59
2021/05/30 06:18:04;;;;;;;16.70;12.63;;;;;;;;;;4998453;28;20215;-58
2021/05/30 06:20:32;;;;;;;21.10;13.23;;;;;;;;;;4990488;28;20287;-58
2021/05/30 06:22:57;;;;;;;23.27;13.17;;;;;;;;;;5002974;28;20278;-57
2021/05/30 06:25:27;;;;;;;18.70;12.30;;;;;;;;;;4994051;28;20742;-57
2021/05/30 06:27:56;;;;;;;18.40;13.20;;;;;;;;;;5000590;28;20187;-58
2021/05/30 06:30:23;;;;;;;16.53;12.93;;;;;;;;;;5002705;28;20322;-58
2021/05/30 06:32:53;;;;;;;17.27;13.40;;;;;;;;;;5000357;28;20179;-58
2021/05/30 06:35:22;;;;;;;20.60;13.93;;;;;;;;;;4999103;28;20622;-61
2021/05/30 06:37:50;;;;;;;18.73;13.07;;;;;;;;;;4995850;28;20598;-59
2021/05/30 06:40:15;;;;;;;19.07;13.13;;;;;;;;;;5000253;28;20194;-63
2021/05/30 06:42:40;;;;;;;18.50;13.70;;;;;;;;;;4996762;28;20585;-61
2021/05/30 06:45:06;;;;;;;19.63;12.37;;;;;;;;;;4999819;28;20191;-60
2021/05/30 06:47:37;;;;;;;17.10;13.07;;;;;;;;;;4998322;28;20848;-60
2021/05/30 06:50:03;;;;;;;15.17;13.27;;;;;;;;;;4996965;28;20187;-61
2021/05/30 06:52:30;;;;;;;24.50;13.03;;;;;;;;;;4996442;28;20192;-61
2021/05/30 06:54:58;;;;;;;19.27;12.27;;;;;;;;;;4997410;28;20186;-60
2021/05/30 06:57:23;;;;;;;17.80;13.43;;;;;;;;;;4997542;28;20589;-59
2021/05/30 06:59:53;;;;;;;16.60;13.00;;;;;;;;;;5004226;28;20176;-59
2021/05/30 07:02:19;;;;;;;17.93;12.30;;;;;;;;;;4998736;28;20191;-60
2021/05/30 07:04:45;;;;;;;15.03;11.63;;;;;;;;;;5004789;28;20281;-60
2021/05/30 07:07:13;;;;;;;15.70;12.57;;;;;;;;;;4996914;28;21588;-60
2021/05/30 07:09:38;;;;;;;13.23;10.23;;;;;;;;;;4992594;28;20770;-60
2021/05/30 07:12:07;;;;;;;12.57;10.83;;;;;;;;;;4997810;28;20176;-57
2021/05/30 07:14:32;;;;;;;13.87;9.73;;;;;;;;;;4998548;28;20199;-59
2021/05/30 07:16:58;;;;;;;13.07;9.65;;;;;;;;;;5002555;28;20209;-60
2021/05/30 07:19:23;;;;;;;13.32;9.45;;;;;;;;;;5003192;28;20211;-58
2021/05/30 07:21:51;;;;;;;13.40;9.63;;;;;;;;;;5000914;28;20957;-57
2021/05/30 07:24:17;;;;;;;11.55;10.32;;;;;;;;;;4997921;28;20674;-60
2021/05/30 07:26:43;;;;;;;13.30;9.85;;;;;;;;;;4979055;28;20214;-62
2021/05/30 07:29:09;;;;;;;12.48;10.70;;;;;;;;;;5008546;28;20190;-59
2021/05/30 07:31:37;;;;;;;12.50;10.45;;;;;;;;;;4986424;28;20184;-58
2021/05/30 07:34:03;;;;;;;14.32;12.85;;;;;;;;;;5008892;28;20837;-58
2021/05/30 07:36:29;;;;;;;13.60;12.15;;;;;;;;;;5001743;28;20289;-58
2021/05/30 07:38:57;;;;;;;13.02;11.82;;;;;;;;;;5003963;28;20203;-59
2021/05/30 07:41:23;;;;;;;13.05;11.57;;;;;;;;;;5011609;28;20725;-58
2021/05/30 07:43:51;;;;;;;13.27;11.95;;;;;;;;;;5000314;28;20214;-60
2021/05/30 07:46:16;;;;;;;13.57;11.90;;;;;;;;;;5009593;28;20724;-59
2021/05/30 07:48:41;;;;;;;12.70;11.40;;;;;;;;;;4991674;28;20277;-59
2021/05/30 07:51:09;;;;;;;12.68;11.52;;;;;;;;;;4999238;28;20715;-61
2021/05/30 07:53:34;;;;;;;13.57;12.20;;;;;;;;;;4986644;28;20198;-61
2021/05/30 07:56:00;;;;;;;13.55;12.25;;;;;;;;;;4998990;28;20199;-60
2021/05/30 07:58:26;;;;;;;13.82;12.48;;;;;;;;;;4999584;28;20214;-60
2021/05/30 08:00:51;;;;;;;12.73;11.60;;;;;;;;;;5006113;28;20606;-61
2021/05/30 08:03:17;;;;;;;13.90;12.43;;;;;;;;;;5005719;28;20249;-59
2021/05/30 08:05:42;;;;;;;12.05;10.95;;;;;;;;;;5010819;28;20603;-59
2021/05/30 08:08:07;;;;;;;13.15;11.95;;;;;;;;;;5003648;28;20176;-60
2021/05/30 08:10:33;;;;;;;14.00;12.80;;;;;;;;;;5007217;28;20189;-61
2021/05/30 08:13:00;;;;;;;19.77;13.40;;;;;;;;;;5001566;28;20191;-59
2021/05/30 08:15:26;;;;;;;14.10;12.85;;;;;;;;;;5003281;28;20302;-62
2021/05/30 08:17:53;;;;;;;12.50;11.30;;;;;;;;;;5000354;28;20253;-59
2021/05/30 08:20:20;;;;;;;12.50;11.38;;;;;;;;;;5005170;28;20676;-60
2021/05/30 08:22:46;;;;;;;13.45;12.18;;;;;;;;;;5005898;28;20674;-61
2021/05/30 08:25:12;;;;;;;12.80;11.45;;;;;;;;;;5002467;28;20191;-59
2021/05/30 08:27:38;;;;;;;12.52;11.40;;;;;;;;;;4990366;28;20222;-59
2021/05/30 08:30:06;;;;;;;14.18;12.80;;;;;;;;;;5000643;28;20182;-61
2021/05/30 08:32:32;;;;;;;13.82;12.55;;;;;;;;;;5009397;28;20187;-60
2021/05/30 08:34:57;;;;;;;13.40;12.00;;;;;;;;;;4999487;28;20185;-61
2021/05/30 08:37:25;;;;;;;13.48;12.25;;;;;;;;;;4981306;28;20239;-61
2021/05/30 08:39:51;;;;;;;11.98;10.88;;;;;;;;;;4999925;28;20629;-59
2021/05/30 08:42:23;;;;;;;15.27;13.77;;;;;;;;;;4997504;28;20703;-60
2021/05/30 08:44:54;;;;;;;12.35;11.35;;;;;;;;;;5000820;28;20262;-58
2021/05/30 08:47:21;;;;;;;12.70;11.02;;;;;;;;;;4998928;28;20215;-58
2021/05/30 08:49:47;;;;;;;11.93;10.27;;;;;;;;;;5006851;28;20183;-60
2021/05/30 08:52:12;;;;;;;10.80;9.57;;;;;;;;;;4999596;28;20378;-59
2021/05/30 08:54:38;;;;;;;11.63;10.52;;;;;;;;;;4985951;28;20187;-60
2021/05/30 08:57:06;;;;;;;12.05;10.40;;;;;;;;;;5005681;28;20205;-59
2021/05/30 08:59:37;;;;;;;11.43;10.25;;;;;;;;;;5003144;28;20583;-58
2021/05/30 09:02:16;;;;;;;9.57;8.30;;;;;;;;;;4983318;28;20279;-60
2021/05/30 09:05:06;;;;;;;10.48;9.15;;;;;;;;;;4991876;28;21263;-61
2021/05/30 09:07:47;;;;;;;10.93;8.07;;;;;;;;;;4978401;28;20210;-62
2021/05/30 09:10:26;;;;;;;9.02;7.82;;;;;;;;;;4987798;28;20321;-59
2021/05/30 09:13:10;;;;;;;8.88;7.72;;;;;;;;;;4989055;28;20186;-62
2021/05/30 09:16:07;;;;;;;10.43;8.68;;;;;;;;;;4984548;28;20214;-62
2021/05/30 09:18:34;;;;;;;10.55;9.45;;;;;;;;;;4990599;28;20183;-60
2021/05/30 09:21:09;;;;;;;9.88;8.90;;;;;;;;;;4992552;28;20242;-59
2021/05/30 09:23:46;;;;;;;9.57;8.50;;;;;;;;;;4990212;28;20182;-59
2021/05/30 09:26:19;;;;;;;9.50;8.57;;;;;;;;;;4993296;28;20277;-58
2021/05/30 09:29:08;;;;;;;10.25;8.88;;;;;;;;;;4993358;28;20811;-61
2021/05/30 09:31:34;;;;;;;10.95;8.73;;;;;;;;;;4992234;28;20193;-58
2021/05/30 09:40:45;;;;;;;9.60;8.70;;;;;;;;;;4996214;28;20567;-59
2021/05/30 09:43:25;;;;;;;10.48;9.40;;;;;;;;;;5010232;28;20199;-59
2021/05/30 09:46:13;;;;;;;8.20;7.05;;;;;;;;;;4998048;28;20218;-58
2021/05/30 09:48:45;;;;;;;8.63;7.68;;;;;;;;;;4993077;28;20609;-57
2021/05/30 09:51:23;;;;;;;8.15;7.28;;;;;;;;;;5000378;28;20256;-60
2021/05/30 09:53:49;;;;;;;10.27;8.85;;;;;;;;;;5001104;28;20280;-60
2021/05/30 09:56:32;;;;;;;11.73;8.37;;;;;;;;;;4995589;28;20735;-59
2021/05/30 09:58:58;;;;;;;8.60;7.80;;;;;;;;;;4993791;28;20953;-59
2021/05/30 10:01:25;;;;;;;7.57;6.22;;;;;;;;;;5003995;28;20190;-58
2021/05/30 10:03:55;;;;;;;5.80;5.30;;;;;;;;;;5004880;28;20192;-60
2021/05/30 10:06:22;;;;;;;6.57;6.05;;;;;;;;;;4983169;28;20215;-59
2021/05/30 10:08:47;;;;;;;6.90;6.25;;;;;;;;;;5000776;28;20608;-59
2021/05/30 10:11:16;;;;;;;7.70;6.30;;;;;;;;;;5001950;28;20203;-59
2021/05/30 10:13:42;;;;;;;7.53;6.63;;;;;;;;;;4982574;28;20179;-61
2021/05/30 10:16:10;;;;;;;6.88;6.13;;;;;;;;;;4984119;28;20214;-57
2021/05/30 10:18:52;;;;;;;7.15;6.45;;;;;;;;;;5000456;28;20342;-59
2021/05/30 10:21:19;;;;;;;8.52;6.53;;;;;;;;;;4983333;28;20202;-58
2021/05/30 10:23:50;;;;;;;8.68;7.07;;;;;;;;;;4998773;28;20188;-58
2021/05/30 10:26:22;;;;;;;6.40;5.80;;;;;;;;;;4999942;28;20213;-59
2021/05/30 10:29:08;;;;;;;8.73;6.00;;;;;;;;;;5003866;28;20290;-60
2021/05/30 10:31:37;;;;;;;6.32;5.72;;;;;;;;;;5008329;28;20207;-60
2021/05/30 10:34:13;;;;;;;6.32;5.63;;;;;;;;;;5010743;28;20247;-60
2021/05/30 10:36:43;;;;;;;7.05;6.35;;;;;;;;;;5006652;28;20234;-62
2021/05/30 10:39:33;;;;;;;7.32;6.47;;;;;;;;;;5008684;28;20205;-60
2021/05/30 10:42:10;;;;;;;6.72;6.05;;;;;;;;;;5000156;28;20187;-60
2021/05/30 10:44:51;;;;;;;9.07;6.43;;;;;;;;;;5001608;28;20207;-59
2021/05/30 10:47:17;;;;;;;10.15;6.80;;;;;;;;;;4982826;28;20211;-60
2021/05/30 10:50:05;;;;;;;6.97;6.05;;;;;;;;;;5004284;28;20296;-60
2021/05/30 10:52:36;;;;;;;5.80;5.30;;;;;;;;;;4993514;28;20207;-59
2021/05/30 10:55:40;;;;;;;8.00;5.25;;;;;;;;;;5001049;28;20672;-59
2021/05/30 10:58:15;;;;;;;6.97;4.90;;;;;;;;;;4930651;29;20711;-60
2021/05/30 11:00:40;;;;;;;7.78;5.25;;;;;;;;;;4941017;28;20279;-58
2021/05/30 11:03:09;;;;;;;6.60;5.22;;;;;;;;;;4976357;28;20286;-60
2021/05/30 11:05:38;;;;;;;6.22;5.38;;;;;;;;;;5003298;28;20206;-60
2021/05/30 11:08:03;;;;;;;5.85;5.32;;;;;;;;;;5004357;28;20212;-60
2021/05/30 11:10:29;;;;;;;5.78;4.80;;;;;;;;;;4986455;28;20253;-61
2021/05/30 11:12:59;;;;;;;6.28;4.20;;;;;;;;;;4999201;28;20227;-59
2021/05/30 11:15:26;;;;;;;5.20;4.80;;;;;;;;;;5003577;28;20778;-59
2021/05/30 11:17:57;;;;;;;6.18;5.03;;;;;;;;;;4980657;28;20283;-61
2021/05/30 11:20:25;;;;;;;5.40;4.88;;;;;;;;;;5009503;28;20837;-58
2021/05/30 11:22:56;;;;;;;6.75;6.03;;;;;;;;;;5004203;28;20821;-59
2021/05/30 11:25:30;;;;;;;7.20;5.25;;;;;;;;;;5000848;28;20590;-62
2021/05/30 11:28:00;;;;;;;5.35;4.53;;;;;;;;;;5006994;28;20203;-60
2021/05/30 11:30:41;;;;;;;5.57;4.43;;;;;;;;;;5000331;28;20179;-60
2021/05/30 11:33:09;;;;;;;7.65;4.45;;;;;;;;;;5003710;28;20269;-60
2021/05/30 11:35:37;;;;;;;6.25;4.00;;;;;;;;;;5000810;28;20686;-60
2021/05/30 11:38:03;;;;;;;12.88;5.25;;;;;;;;;;4985877;28;20179;-62
2021/05/30 11:40:29;;;;;;;6.68;4.65;;;;;;;;;;5007719;28;20195;-60
2021/05/30 11:42:54;;;;;;;12.80;4.95;;;;;;;;;;4987610;28;20717;-59
2021/05/30 11:45:34;;;;;;;5.95;4.70;;;;;;;;;;5009548;28;20223;-60
2021/05/30 11:48:02;;;;;;;7.47;5.07;;;;;;;;;;4998129;28;20215;-59
2021/05/30 11:50:32;;;;;;;5.20;4.43;;;;;;;;;;4983094;28;20187;-60
2021/05/30 11:53:00;;;;;;;7.13;5.13;;;;;;;;;;4995265;28;20215;-58
2021/05/30 11:55:26;;;;;;;6.40;4.70;;;;;;;;;;4998839;28;20214;-58
2021/05/30 11:57:51;;;;;;;5.45;4.35;;;;;;;;;;4997959;28;20194;-58
2021/05/30 12:00:29;;;;;;;10.90;5.30;;;;;;;;;;5003831;28;20184;-59
2021/05/30 12:02:57;;;;;;;7.18;4.95;;;;;;;;;;4999320;28;20332;-58
2021/05/30 12:05:22;;;;;;;4.85;4.20;;;;;;;;;;4995389;28;20199;-59
2021/05/30 12:07:49;;;;;;;6.68;4.43;;;;;;;;;;5002436;28;20216;-60
2021/05/30 12:10:16;;;;;;;7.22;4.43;;;;;;;;;;4999229;28;20591;-58
2021/05/30 12:12:44;;;;;;;7.97;4.50;;;;;;;;;;5001030;28;20323;-60
2021/05/30 12:15:16;;;;;;;5.55;4.47;;;;;;;;;;4999313;28;20199;-59
2021/05/30 12:17:51;;;;;;;5.40;4.40;;;;;;;;;;4999738;28;20207;-59
2021/05/30 12:20:26;;;;;;;5.35;4.35;;;;;;;;;;4997789;28;20186;-58
2021/05/30 12:22:51;;;;;;;4.88;4.10;;;;;;;;;;4989342;28;20614;-59
2021/05/30 12:25:18;;;;;;;5.13;4.57;;;;;;;;;;4999490;28;20278;-59
2021/05/30 12:27:43;;;;;;;7.13;4.45;;;;;;;;;;5000134;28;20249;-62
2021/05/30 12:30:12;;;;;;;5.78;4.55;;;;;;;;;;5005772;28;20651;-59
2021/05/30 12:32:48;;;;;;;8.57;4.70;;;;;;;;;;5009431;28;20211;-60
2021/05/30 12:35:13;;;;;;;8.05;4.53;;;;;;;;;;4988462;28;20183;-59
2021/05/30 12:37:43;;;;;;;10.10;4.85;;;;;;;;;;5002008;28;20206;-58
2021/05/30 12:40:11;;;;;;;7.85;4.75;;;;;;;;;;5002568;28;20196;-57
2021/05/30 12:42:39;;;;;;;5.00;4.50;;;;;;;;;;5001042;28;20845;-58
2021/05/30 12:45:10;;;;;;;5.13;4.30;;;;;;;;;;5000545;28;20279;-60
2021/05/30 12:47:42;;;;;;;6.25;5.65;;;;;;;;;;5004531;28;20201;-59
2021/05/30 12:50:09;;;;;;;7.47;5.65;;;;;;;;;;5003138;28;20203;-60
2021/05/30 12:53:01;;;;;;;6.82;4.90;;;;;;;;;;5005206;28;20324;-56
2021/05/30 12:55:40;;;;;;;5.22;4.53;;;;;;;;;;4981063;28;20750;-57
2021/05/30 12:58:19;;;;;;;6.60;4.20;;;;;;;;;;5001971;28;20723;-60
2021/05/30 13:00:44;;;;;;;7.63;4.10;;;;;;;;;;4994514;28;20588;-57
2021/05/30 13:03:11;;;;;;;5.22;4.72;;;;;;;;;;4989350;28;20191;-60
2021/05/30 13:05:42;;;;;;;5.28;4.00;;;;;;;;;;5000909;28;20211;-59
2021/05/30 13:08:29;;;;;;;6.88;4.00;;;;;;;;;;5001050;28;20230;-59
2021/05/30 13:10:58;;;;;;;12.25;5.43;;;;;;;;;;4999665;28;20214;-57
2021/05/30 13:13:44;;;;;;;6.60;4.13;;;;;;;;;;4998127;28;20200;-58
2021/05/30 13:16:11;;;;;;;5.68;3.90;;;;;;;;;;5003497;28;20223;-59
2021/05/30 13:18:53;;;;;;;11.07;4.30;;;;;;;;;;4996918;28;20226;-58
2021/05/30 13:21:29;;;;;;;4.70;4.13;;;;;;;;;;5003887;28;20207;-57
2021/05/30 13:24:11;;;;;;;5.38;4.57;;;;;;;;;;4997746;28;20198;-58
2021/05/30 13:26:51;;;;;;;4.75;3.97;;;;;;;;;;5001046;28;21012;-59
2021/05/30 13:29:26;;;;;;;7.75;3.97;;;;;;;;;;5004859;28;20668;-56
2021/05/30 13:31:53;;;;;;;5.25;3.90;;;;;;;;;;5001283;28;20271;-59
2021/05/30 13:34:18;;;;;;;6.38;4.13;;;;;;;;;;5007423;28;20217;-60
2021/05/30 13:36:46;;;;;;;4.18;3.72;;;;;;;;;;5001223;28;20703;-62
2021/05/30 13:39:12;;;;;;;4.90;4.40;;;;;;;;;;5002023;28;20229;-61
2021/05/30 13:41:40;;;;;;;6.57;4.20;;;;;;;;;;5001341;28;20754;-60
2021/05/30 13:44:05;;;;;;;6.15;4.18;;;;;;;;;;4999207;28;21441;-59
2021/05/30 13:46:31;;;;;;;4.32;3.85;;;;;;;;;;4988968;28;20199;-61
2021/05/30 13:48:57;;;;;;;7.18;4.20;;;;;;;;;;5000540;28;20208;-59
2021/05/30 13:51:26;;;;;;;5.88;3.75;;;;;;;;;;4990226;28;20227;-60
2021/05/30 13:53:56;;;;;;;4.20;3.80;;;;;;;;;;4999551;28;20183;-59
2021/05/30 13:56:21;;;;;;;5.30;3.95;;;;;;;;;;4987498;28;20214;-59
2021/05/30 13:58:47;;;;;;;5.03;3.75;;;;;;;;;;4986239;28;20179;-59
2021/05/30 14:01:14;;;;;;;3.92;3.60;;;;;;;;;;5003805;28;20895;-61
2021/05/30 14:03:40;;;;;;;4.38;3.85;;;;;;;;;;5004077;28;20180;-60
2021/05/30 14:06:07;;;;;;;4.43;3.88;;;;;;;;;;5003761;28;20672;-59
2021/05/30 14:08:36;;;;;;;5.32;3.60;;;;;;;;;;4997650;28;20216;-63
2021/05/30 14:11:02;;;;;;;5.43;3.78;;;;;;;;;;4996463;28;20194;-61
2021/05/30 14:13:27;;;;;;;4.63;4.20;;;;;;;;;;4996678;28;20188;-61
2021/05/30 14:15:53;;;;;;;8.50;4.88;;;;;;;;;;4994334;28;20219;-60
2021/05/30 14:18:18;;;;;;;5.28;4.38;;;;;;;;;;4995921;28;20191;-60
2021/05/30 14:20:44;;;;;;;5.03;3.92;;;;;;;;;;4989328;28;20180;-60
2021/05/30 14:23:09;;;;;;;4.85;3.80;;;;;;;;;;4999407;28;20737;-62
2021/05/30 14:25:35;;;;;;;5.20;4.57;;;;;;;;;;5003654;28;20200;-59
2021/05/30 14:28:03;;;;;;;4.32;3.90;;;;;;;;;;4997389;28;20215;-60
2021/05/30 14:30:30;;;;;;;4.72;3.90;;;;;;;;;;4984529;28;20191;-58
2021/05/30 14:32:57;;;;;;;8.02;4.15;;;;;;;;;;5004800;28;20310;-58
2021/05/30 14:35:22;;;;;;;4.20;3.75;;;;;;;;;;5001892;28;20336;-56
2021/05/30 14:37:51;;;;;;;5.05;4.15;;;;;;;;;;4998341;28;20679;-58
2021/05/30 14:40:17;;;;;;;5.18;3.90;;;;;;;;;;5004599;28;20191;-62
2021/05/30 14:42:45;;;;;;;4.80;3.55;;;;;;;;;;5007748;28;20210;-62
2021/05/30 14:45:13;;;;;;;4.45;3.58;;;;;;;;;;5003071;28;20702;-62
2021/05/30 14:47:41;;;;;;;8.75;3.80;;;;;;;;;;4994819;28;20187;-61
2021/05/30 14:50:06;;;;;;;3.78;3.38;;;;;;;;;;4992026;28;20198;-57
2021/05/30 14:52:34;;;;;;;6.15;3.80;;;;;;;;;;4976550;28;20750;-59
2021/05/30 14:54:59;;;;;;;4.75;4.22;;;;;;;;;;4986578;28;20274;-59